sensor_id;sensor_type;location;lat;lon;timestamp;P1;durP1;ratioP1;P2;durP2;ratioP2
59273;SDS011;45044;41.572;24.730;2022-09-13T00:01:03;13.05;;;11.00;;
59273;SDS011;45044;41.572;24.730;2022-09-13T00:03:30;14.13;;;10.77;;
59273;SDS011;45044;41.572;24.730;2022-09-13T00:05:57;13.65;;;10.55;;
59273;SDS011;45044;41.572;24.730;2022-09-13T00:08:31;12.93;;;10.17;;
59273;SDS011;45044;41.572;24.730;2022-09-13T00:10:58;13.05;;;10.48;;
59273;SDS011;45044;41.572;24.730;2022-09-13T00:13:25;13.15;;;11.20;;
59273;SDS011;45044;41.572;24.730;2022-09-13T00:15:51;13.07;;;10.75;;
59273;SDS011;45044;41.572;24.730;2022-09-13T00:18:18;13.57;;;11.00;;
59273;SDS011;45044;41.572;24.730;2022-09-13T00:20:45;15.30;;;11.07;;
59273;SDS011;45044;41.572;24.730;2022-09-13T00:23:12;14.60;;;10.93;;
59273;SDS011;45044;41.572;24.730;2022-09-13T00:25:39;14.23;;;11.52;;
59273;SDS011;45044;41.572;24.730;2022-09-13T00:28:07;14.85;;;11.25;;
59273;SDS011;45044;41.572;24.730;2022-09-13T00:30:33;14.15;;;11.32;;
59273;SDS011;45044;41.572;24.730;2022-09-13T00:33:00;12.80;;;10.63;;
59273;SDS011;45044;41.572;24.730;2022-09-13T00:35:30;14.60;;;11.90;;
59273;SDS011;45044;41.572;24.730;2022-09-13T00:37:58;13.45;;;10.77;;
59273;SDS011;45044;41.572;24.730;2022-09-13T00:40:26;12.77;;;10.35;;
59273;SDS011;45044;41.572;24.730;2022-09-13T00:42:55;14.13;;;11.73;;
59273;SDS011;45044;41.572;24.730;2022-09-13T00:45:22;16.65;;;11.45;;
59273;SDS011;45044;41.572;24.730;2022-09-13T00:47:54;13.27;;;11.00;;
59273;SDS011;45044;41.572;24.730;2022-09-13T00:50:28;12.80;;;10.60;;
59273;SDS011;45044;41.572;24.730;2022-09-13T00:53:21;14.18;;;10.68;;
59273;SDS011;45044;41.572;24.730;2022-09-13T00:55:57;13.65;;;10.27;;
59273;SDS011;45044;41.572;24.730;2022-09-13T00:58:28;14.90;;;10.93;;
59273;SDS011;45044;41.572;24.730;2022-09-13T01:00:59;14.70;;;10.95;;
59273;SDS011;45044;41.572;24.730;2022-09-13T01:03:29;14.77;;;11.15;;
59273;SDS011;45044;41.572;24.730;2022-09-13T01:06:01;14.38;;;11.73;;
59273;SDS011;45044;41.572;24.730;2022-09-13T01:08:33;14.27;;;11.45;;
59273;SDS011;45044;41.572;24.730;2022-09-13T01:11:02;14.05;;;11.15;;
59273;SDS011;45044;41.572;24.730;2022-09-13T01:13:32;14.27;;;10.73;;
59273;SDS011;45044;41.572;24.730;2022-09-13T01:16:01;13.73;;;11.13;;
59273;SDS011;45044;41.572;24.730;2022-09-13T01:18:28;14.00;;;11.38;;
59273;SDS011;45044;41.572;24.730;2022-09-13T01:28:57;12.98;;;11.02;;
59273;SDS011;45044;41.572;24.730;2022-09-13T01:37:38;12.50;;;10.10;;
59273;SDS011;45044;41.572;24.730;2022-09-13T01:48:23;12.90;;;10.82;;
59273;SDS011;45044;41.572;24.730;2022-09-13T01:56:11;13.15;;;11.00;;
59273;SDS011;45044;41.572;24.730;2022-09-13T01:58:55;14.15;;;10.85;;
59273;SDS011;45044;41.572;24.730;2022-09-13T02:01:38;13.18;;;9.90;;
59273;SDS011;45044;41.572;24.730;2022-09-13T02:04:20;14.07;;;10.98;;
59273;SDS011;45044;41.572;24.730;2022-09-13T02:09:29;12.43;;;8.13;;
59273;SDS011;45044;41.572;24.730;2022-09-13T02:12:02;9.52;;;6.20;;
59273;SDS011;45044;41.572;24.730;2022-09-13T02:14:40;8.00;;;5.80;;
59273;SDS011;45044;41.572;24.730;2022-09-13T02:17:13;10.05;;;6.93;;
59273;SDS011;45044;41.572;24.730;2022-09-13T02:19:57;10.15;;;7.72;;
59273;SDS011;45044;41.572;24.730;2022-09-13T02:22:29;8.45;;;6.20;;
59273;SDS011;45044;41.572;24.730;2022-09-13T02:25:07;7.45;;;5.18;;
59273;SDS011;45044;41.572;24.730;2022-09-13T02:27:36;7.82;;;5.70;;
59273;SDS011;45044;41.572;24.730;2022-09-13T02:30:06;8.85;;;6.40;;
59273;SDS011;45044;41.572;24.730;2022-09-13T02:35:15;9.10;;;6.80;;
59273;SDS011;45044;41.572;24.730;2022-09-13T02:37:44;9.57;;;6.70;;
59273;SDS011;45044;41.572;24.730;2022-09-13T02:40:17;7.93;;;6.13;;
59273;SDS011;45044;41.572;24.730;2022-09-13T02:42:55;8.23;;;5.22;;
59273;SDS011;45044;41.572;24.730;2022-09-13T02:45:35;6.78;;;5.00;;
59273;SDS011;45044;41.572;24.730;2022-09-13T02:48:33;5.40;;;3.60;;
59273;SDS011;45044;41.572;24.730;2022-09-13T02:56:43;7.13;;;4.13;;
59273;SDS011;45044;41.572;24.730;2022-09-13T02:59:23;5.75;;;4.05;;
59273;SDS011;45044;41.572;24.730;2022-09-13T03:02:24;5.43;;;3.65;;
59273;SDS011;45044;41.572;24.730;2022-09-13T03:04:45;4.30;;;3.33;;
59273;SDS011;45044;41.572;24.730;2022-09-13T03:07:12;4.95;;;3.33;;
59273;SDS011;45044;41.572;24.730;2022-09-13T03:09:45;5.63;;;3.63;;
59273;SDS011;45044;41.572;24.730;2022-09-13T03:20:12;5.45;;;3.20;;
59273;SDS011;45044;41.572;24.730;2022-09-13T03:30:56;5.22;;;3.00;;
59273;SDS011;45044;41.572;24.730;2022-09-13T03:41:53;5.32;;;3.30;;
59273;SDS011;45044;41.572;24.730;2022-09-13T03:44:25;5.43;;;2.90;;
59273;SDS011;45044;41.572;24.730;2022-09-13T03:46:55;4.88;;;3.38;;
59273;SDS011;45044;41.572;24.730;2022-09-13T03:49:26;5.90;;;3.45;;
59273;SDS011;45044;41.572;24.730;2022-09-13T03:51:55;5.93;;;3.50;;
59273;SDS011;45044;41.572;24.730;2022-09-13T03:54:25;5.28;;;3.50;;
59273;SDS011;45044;41.572;24.730;2022-09-13T03:59:52;4.82;;;3.03;;
59273;SDS011;45044;41.572;24.730;2022-09-13T04:02:21;5.93;;;3.10;;
59273;SDS011;45044;41.572;24.730;2022-09-13T04:04:50;5.20;;;3.30;;
59273;SDS011;45044;41.572;24.730;2022-09-13T04:07:18;4.43;;;2.75;;
59273;SDS011;45044;41.572;24.730;2022-09-13T04:09:46;5.03;;;3.08;;
59273;SDS011;45044;41.572;24.730;2022-09-13T04:12:14;4.78;;;2.88;;
59273;SDS011;45044;41.572;24.730;2022-09-13T04:14:41;4.18;;;2.92;;
59273;SDS011;45044;41.572;24.730;2022-09-13T04:17:09;4.95;;;3.30;;
59273;SDS011;45044;41.572;24.730;2022-09-13T04:19:36;5.20;;;3.00;;
59273;SDS011;45044;41.572;24.730;2022-09-13T04:22:03;6.88;;;3.75;;
59273;SDS011;45044;41.572;24.730;2022-09-13T04:24:30;6.28;;;3.90;;
59273;SDS011;45044;41.572;24.730;2022-09-13T04:26:57;6.97;;;4.47;;
59273;SDS011;45044;41.572;24.730;2022-09-13T04:29:25;7.60;;;4.40;;
59273;SDS011;45044;41.572;24.730;2022-09-13T04:31:52;8.15;;;4.63;;
59273;SDS011;45044;41.572;24.730;2022-09-13T04:34:20;5.72;;;3.88;;
59273;SDS011;45044;41.572;24.730;2022-09-13T04:36:50;7.10;;;3.80;;
59273;SDS011;45044;41.572;24.730;2022-09-13T04:39:18;7.40;;;4.18;;
59273;SDS011;45044;41.572;24.730;2022-09-13T04:41:46;8.00;;;4.82;;
59273;SDS011;45044;41.572;24.730;2022-09-13T04:44:14;6.07;;;4.30;;
59273;SDS011;45044;41.572;24.730;2022-09-13T04:46:45;7.40;;;4.80;;
59273;SDS011;45044;41.572;24.730;2022-09-13T04:49:16;7.53;;;4.80;;
59273;SDS011;45044;41.572;24.730;2022-09-13T04:51:43;7.13;;;3.90;;
59273;SDS011;45044;41.572;24.730;2022-09-13T04:54:10;7.50;;;3.88;;
59273;SDS011;45044;41.572;24.730;2022-09-13T04:56:41;8.27;;;4.07;;
59273;SDS011;45044;41.572;24.730;2022-09-13T04:59:09;9.27;;;4.40;;
59273;SDS011;45044;41.572;24.730;2022-09-13T05:01:36;7.18;;;3.95;;
59273;SDS011;45044;41.572;24.730;2022-09-13T05:04:04;6.10;;;3.30;;
59273;SDS011;45044;41.572;24.730;2022-09-13T05:06:32;4.50;;;3.20;;
59273;SDS011;45044;41.572;24.730;2022-09-13T05:08:59;5.20;;;2.97;;
59273;SDS011;45044;41.572;24.730;2022-09-13T05:11:26;5.68;;;3.40;;
59273;SDS011;45044;41.572;24.730;2022-09-13T05:13:56;5.38;;;3.45;;
59273;SDS011;45044;41.572;24.730;2022-09-13T05:16:25;4.03;;;3.20;;
59273;SDS011;45044;41.572;24.730;2022-09-13T05:18:54;5.57;;;3.40;;
59273;SDS011;45044;41.572;24.730;2022-09-13T05:21:22;5.13;;;3.13;;
59273;SDS011;45044;41.572;24.730;2022-09-13T05:23:53;4.70;;;3.42;;
59273;SDS011;45044;41.572;24.730;2022-09-13T05:26:21;5.63;;;3.55;;
59273;SDS011;45044;41.572;24.730;2022-09-13T05:28:49;5.90;;;3.28;;
59273;SDS011;45044;41.572;24.730;2022-09-13T05:31:20;4.15;;;2.97;;
59273;SDS011;45044;41.572;24.730;2022-09-13T05:33:57;4.38;;;3.22;;
59273;SDS011;45044;41.572;24.730;2022-09-13T05:36:27;5.07;;;3.13;;
59273;SDS011;45044;41.572;24.730;2022-09-13T05:38:54;4.55;;;3.30;;
59273;SDS011;45044;41.572;24.730;2022-09-13T05:41:41;4.05;;;2.70;;
59273;SDS011;45044;41.572;24.730;2022-09-13T05:44:08;4.38;;;3.30;;
59273;SDS011;45044;41.572;24.730;2022-09-13T05:46:38;4.10;;;3.00;;
59273;SDS011;45044;41.572;24.730;2022-09-13T05:49:06;4.50;;;3.00;;
59273;SDS011;45044;41.572;24.730;2022-09-13T05:51:32;5.10;;;3.20;;
59273;SDS011;45044;41.572;24.730;2022-09-13T05:53:59;4.88;;;3.70;;
59273;SDS011;45044;41.572;24.730;2022-09-13T05:56:26;4.05;;;3.25;;
59273;SDS011;45044;41.572;24.730;2022-09-13T05:58:55;4.30;;;3.53;;
59273;SDS011;45044;41.572;24.730;2022-09-13T06:01:23;3.42;;;2.50;;
59273;SDS011;45044;41.572;24.730;2022-09-13T06:03:53;4.32;;;3.72;;
59273;SDS011;45044;41.572;24.730;2022-09-13T06:06:22;4.68;;;3.35;;
59273;SDS011;45044;41.572;24.730;2022-09-13T06:08:53;4.53;;;3.38;;
59273;SDS011;45044;41.572;24.730;2022-09-13T06:11:21;4.18;;;3.30;;
59273;SDS011;45044;41.572;24.730;2022-09-13T06:13:48;4.30;;;3.42;;
59273;SDS011;45044;41.572;24.730;2022-09-13T06:16:15;4.85;;;2.95;;
59273;SDS011;45044;41.572;24.730;2022-09-13T06:18:43;5.25;;;3.30;;
59273;SDS011;45044;41.572;24.730;2022-09-13T06:21:11;4.72;;;3.05;;
59273;SDS011;45044;41.572;24.730;2022-09-13T06:23:44;3.63;;;2.78;;
59273;SDS011;45044;41.572;24.730;2022-09-13T06:26:13;4.47;;;2.85;;
59273;SDS011;45044;41.572;24.730;2022-09-13T06:28:41;3.75;;;2.83;;
59273;SDS011;45044;41.572;24.730;2022-09-13T06:31:09;3.90;;;3.05;;
59273;SDS011;45044;41.572;24.730;2022-09-13T06:33:39;3.53;;;2.67;;
59273;SDS011;45044;41.572;24.730;2022-09-13T06:36:13;3.40;;;2.85;;
59273;SDS011;45044;41.572;24.730;2022-09-13T06:38:46;4.07;;;2.75;;
59273;SDS011;45044;41.572;24.730;2022-09-13T06:41:18;3.83;;;2.83;;
59273;SDS011;45044;41.572;24.730;2022-09-13T06:43:55;3.42;;;2.58;;
59273;SDS011;45044;41.572;24.730;2022-09-13T06:46:24;3.45;;;2.30;;
59273;SDS011;45044;41.572;24.730;2022-09-13T06:48:54;3.85;;;2.13;;
59273;SDS011;45044;41.572;24.730;2022-09-13T06:51:21;3.30;;;2.72;;
59273;SDS011;45044;41.572;24.730;2022-09-13T06:53:49;4.85;;;2.50;;
59273;SDS011;45044;41.572;24.730;2022-09-13T06:56:23;4.60;;;2.90;;
59273;SDS011;45044;41.572;24.730;2022-09-13T06:58:55;3.85;;;2.65;;
59273;SDS011;45044;41.572;24.730;2022-09-13T07:01:27;4.43;;;2.92;;
59273;SDS011;45044;41.572;24.730;2022-09-13T07:06:27;3.28;;;2.70;;
59273;SDS011;45044;41.572;24.730;2022-09-13T07:08:56;4.18;;;2.63;;
59273;SDS011;45044;41.572;24.730;2022-09-13T07:11:26;4.13;;;2.78;;
59273;SDS011;45044;41.572;24.730;2022-09-13T07:13:56;2.58;;;2.28;;
59273;SDS011;45044;41.572;24.730;2022-09-13T07:16:24;2.40;;;2.20;;
59273;SDS011;45044;41.572;24.730;2022-09-13T07:18:53;4.60;;;2.50;;
59273;SDS011;45044;41.572;24.730;2022-09-13T07:21:21;2.97;;;2.40;;
59273;SDS011;45044;41.572;24.730;2022-09-13T07:23:49;3.17;;;2.28;;
59273;SDS011;45044;41.572;24.730;2022-09-13T07:26:16;4.45;;;2.50;;
59273;SDS011;45044;41.572;24.730;2022-09-13T07:28:44;2.70;;;2.10;;
59273;SDS011;45044;41.572;24.730;2022-09-13T07:31:13;2.97;;;2.05;;
59273;SDS011;45044;41.572;24.730;2022-09-13T07:33:41;2.85;;;2.30;;
59273;SDS011;45044;41.572;24.730;2022-09-13T07:36:08;3.35;;;2.17;;
59273;SDS011;45044;41.572;24.730;2022-09-13T07:38:38;2.63;;;2.05;;
59273;SDS011;45044;41.572;24.730;2022-09-13T07:41:07;2.75;;;2.10;;
59273;SDS011;45044;41.572;24.730;2022-09-13T07:43:37;3.08;;;2.20;;
59273;SDS011;45044;41.572;24.730;2022-09-13T07:46:05;3.33;;;2.03;;
59273;SDS011;45044;41.572;24.730;2022-09-13T07:48:35;2.22;;;1.77;;
59273;SDS011;45044;41.572;24.730;2022-09-13T07:53:37;2.72;;;1.88;;
59273;SDS011;45044;41.572;24.730;2022-09-13T07:56:07;4.10;;;1.80;;
59273;SDS011;45044;41.572;24.730;2022-09-13T07:58:39;1.73;;;1.60;;
59273;SDS011;45044;41.572;24.730;2022-09-13T08:01:29;4.00;;;1.60;;
59273;SDS011;45044;41.572;24.730;2022-09-13T08:03:59;3.20;;;2.08;;
59273;SDS011;45044;41.572;24.730;2022-09-13T08:06:27;3.90;;;1.80;;
59273;SDS011;45044;41.572;24.730;2022-09-13T08:08:57;1.90;;;1.58;;
59273;SDS011;45044;41.572;24.730;2022-09-13T08:11:25;2.55;;;1.48;;
59273;SDS011;45044;41.572;24.730;2022-09-13T08:13:55;2.38;;;1.63;;
59273;SDS011;45044;41.572;24.730;2022-09-13T08:16:22;2.55;;;1.88;;
59273;SDS011;45044;41.572;24.730;2022-09-13T08:18:51;3.35;;;2.10;;
59273;SDS011;45044;41.572;24.730;2022-09-13T08:21:19;2.45;;;1.70;;
59273;SDS011;45044;41.572;24.730;2022-09-13T08:23:47;2.63;;;1.40;;
59273;SDS011;45044;41.572;24.730;2022-09-13T08:26:15;2.45;;;1.65;;
59273;SDS011;45044;41.572;24.730;2022-09-13T08:28:42;2.17;;;1.40;;
59273;SDS011;45044;41.572;24.730;2022-09-13T08:31:10;2.88;;;1.63;;
59273;SDS011;45044;41.572;24.730;2022-09-13T08:33:41;2.60;;;1.50;;
59273;SDS011;45044;41.572;24.730;2022-09-13T08:36:12;2.63;;;1.40;;
59273;SDS011;45044;41.572;24.730;2022-09-13T08:38:47;2.28;;;1.27;;
59273;SDS011;45044;41.572;24.730;2022-09-13T08:44:24;1.88;;;1.05;;
59273;SDS011;45044;41.572;24.730;2022-09-13T08:49:41;1.40;;;1.10;;
59273;SDS011;45044;41.572;24.730;2022-09-13T08:54:45;2.78;;;1.30;;
59273;SDS011;45044;41.572;24.730;2022-09-13T08:57:21;2.15;;;1.20;;
59273;SDS011;45044;41.572;24.730;2022-09-13T09:00:12;1.95;;;1.10;;
59273;SDS011;45044;41.572;24.730;2022-09-13T09:06:08;1.77;;;1.10;;
59273;SDS011;45044;41.572;24.730;2022-09-13T09:08:29;1.75;;;1.17;;
59273;SDS011;45044;41.572;24.730;2022-09-13T09:11:01;1.30;;;1.10;;
59273;SDS011;45044;41.572;24.730;2022-09-13T09:13:31;3.70;;;1.60;;
59273;SDS011;45044;41.572;24.730;2022-09-13T09:19:15;1.73;;;1.25;;
59273;SDS011;45044;41.572;24.730;2022-09-13T09:21:48;1.42;;;1.20;;
59273;SDS011;45044;41.572;24.730;2022-09-13T09:24:19;2.55;;;1.30;;
59273;SDS011;45044;41.572;24.730;2022-09-13T09:26:48;2.45;;;1.30;;
59273;SDS011;45044;41.572;24.730;2022-09-13T09:29:20;1.90;;;1.08;;
59273;SDS011;45044;41.572;24.730;2022-09-13T09:34:32;1.55;;;1.30;;
59273;SDS011;45044;41.572;24.730;2022-09-13T09:37:14;1.50;;;1.17;;
59273;SDS011;45044;41.572;24.730;2022-09-13T09:39:54;1.88;;;1.20;;
59273;SDS011;45044;41.572;24.730;2022-09-13T09:42:28;2.38;;;1.17;;
59273;SDS011;45044;41.572;24.730;2022-09-13T09:47:58;1.73;;;1.30;;
59273;SDS011;45044;41.572;24.730;2022-09-13T09:50:32;1.67;;;1.20;;
59273;SDS011;45044;41.572;24.730;2022-09-13T09:58:50;2.22;;;1.40;;
59273;SDS011;45044;41.572;24.730;2022-09-13T10:01:33;2.75;;;1.40;;
59273;SDS011;45044;41.572;24.730;2022-09-13T10:06:39;2.35;;;1.40;;
59273;SDS011;45044;41.572;24.730;2022-09-13T10:17:24;1.60;;;1.00;;
59273;SDS011;45044;41.572;24.730;2022-09-13T10:19:59;2.45;;;1.42;;
59273;SDS011;45044;41.572;24.730;2022-09-13T10:22:29;2.05;;;1.40;;
59273;SDS011;45044;41.572;24.730;2022-09-13T10:25:13;1.88;;;1.30;;
59273;SDS011;45044;41.572;24.730;2022-09-13T10:30:35;1.80;;;1.45;;
59273;SDS011;45044;41.572;24.730;2022-09-13T10:33:25;2.33;;;1.42;;
59273;SDS011;45044;41.572;24.730;2022-09-13T10:35:56;3.03;;;1.50;;
59273;SDS011;45044;41.572;24.730;2022-09-13T10:38:28;2.13;;;1.65;;
59273;SDS011;45044;41.572;24.730;2022-09-13T10:40:57;3.13;;;1.42;;
59273;SDS011;45044;41.572;24.730;2022-09-13T10:43:27;2.53;;;1.65;;
59273;SDS011;45044;41.572;24.730;2022-09-13T10:45:56;1.88;;;1.48;;
59273;SDS011;45044;41.572;24.730;2022-09-13T10:48:25;2.65;;;1.77;;
59273;SDS011;45044;41.572;24.730;2022-09-13T10:51:15;2.65;;;1.80;;
59273;SDS011;45044;41.572;24.730;2022-09-13T10:53:46;2.15;;;1.55;;
59273;SDS011;45044;41.572;24.730;2022-09-13T10:56:20;2.35;;;1.70;;
59273;SDS011;45044;41.572;24.730;2022-09-13T10:58:50;2.17;;;1.70;;
59273;SDS011;45044;41.572;24.730;2022-09-13T11:07:33;2.20;;;1.50;;
59273;SDS011;45044;41.572;24.730;2022-09-13T11:16:18;2.55;;;1.80;;
59273;SDS011;45044;41.572;24.730;2022-09-13T11:21:40;1.85;;;1.65;;
59273;SDS011;45044;41.572;24.730;2022-09-13T11:24:24;3.03;;;1.92;;
59273;SDS011;45044;41.572;24.730;2022-09-13T11:27:35;2.00;;;1.75;;
59273;SDS011;45044;41.572;24.730;2022-09-13T11:30:19;2.78;;;1.83;;
59273;SDS011;45044;41.572;24.730;2022-09-13T11:38:38;2.08;;;1.85;;
59273;SDS011;45044;41.572;24.730;2022-09-13T11:46:55;2.92;;;2.15;;
59273;SDS011;45044;41.572;24.730;2022-09-13T11:49:44;2.63;;;2.05;;
59273;SDS011;45044;41.572;24.730;2022-09-13T11:57:44;2.95;;;2.00;;
59273;SDS011;45044;41.572;24.730;2022-09-13T12:05:44;3.45;;;2.63;;
59273;SDS011;45044;41.572;24.730;2022-09-13T12:11:20;3.72;;;2.10;;
59273;SDS011;45044;41.572;24.730;2022-09-13T12:13:51;2.75;;;1.95;;
59273;SDS011;45044;41.572;24.730;2022-09-13T12:16:24;3.45;;;2.10;;
59273;SDS011;45044;41.572;24.730;2022-09-13T12:19:06;2.53;;;1.80;;
59273;SDS011;45044;41.572;24.730;2022-09-13T12:21:57;2.83;;;2.13;;
59273;SDS011;45044;41.572;24.730;2022-09-13T12:24:36;3.13;;;2.35;;
59273;SDS011;45044;41.572;24.730;2022-09-13T12:32:20;2.05;;;1.65;;
59273;SDS011;45044;41.572;24.730;2022-09-13T12:35:08;2.58;;;1.90;;
59273;SDS011;45044;41.572;24.730;2022-09-13T13:03:32;2.10;;;1.50;;
59273;SDS011;45044;41.572;24.730;2022-09-13T13:06:07;2.88;;;1.45;;
59273;SDS011;45044;41.572;24.730;2022-09-13T13:08:40;2.47;;;1.40;;
59273;SDS011;45044;41.572;24.730;2022-09-13T13:11:19;1.83;;;1.40;;
59273;SDS011;45044;41.572;24.730;2022-09-13T13:16:28;1.80;;;1.30;;
59273;SDS011;45044;41.572;24.730;2022-09-13T13:19:01;2.50;;;1.55;;
59273;SDS011;45044;41.572;24.730;2022-09-13T13:29:19;2.50;;;1.38;;
59273;SDS011;45044;41.572;24.730;2022-09-13T13:34:37;2.25;;;1.20;;
59273;SDS011;45044;41.572;24.730;2022-09-13T13:39:46;2.15;;;1.42;;
59273;SDS011;45044;41.572;24.730;2022-09-13T13:49:50;2.88;;;1.77;;
59273;SDS011;45044;41.572;24.730;2022-09-13T13:57:23;1.83;;;1.30;;
59273;SDS011;45044;41.572;24.730;2022-09-13T14:02:30;1.55;;;1.10;;
59273;SDS011;45044;41.572;24.730;2022-09-13T14:05:16;2.10;;;1.65;;
59273;SDS011;45044;41.572;24.730;2022-09-13T14:10:43;2.47;;;1.60;;
59273;SDS011;45044;41.572;24.730;2022-09-13T14:21:46;2.85;;;1.30;;
59273;SDS011;45044;41.572;24.730;2022-09-13T14:24:35;1.80;;;1.50;;
59273;SDS011;45044;41.572;24.730;2022-09-13T14:27:03;2.42;;;1.50;;
59273;SDS011;45044;41.572;24.730;2022-09-13T14:29:34;3.80;;;1.60;;
59273;SDS011;45044;41.572;24.730;2022-09-13T14:32:05;1.63;;;1.45;;
59273;SDS011;45044;41.572;24.730;2022-09-13T14:34:36;2.53;;;1.52;;
59273;SDS011;45044;41.572;24.730;2022-09-13T14:37:05;2.38;;;1.30;;
59273;SDS011;45044;41.572;24.730;2022-09-13T14:39:58;3.28;;;1.88;;
59273;SDS011;45044;41.572;24.730;2022-09-13T14:42:36;1.75;;;1.30;;
59273;SDS011;45044;41.572;24.730;2022-09-13T14:45:15;2.05;;;1.30;;
59273;SDS011;45044;41.572;24.730;2022-09-13T14:50:23;3.70;;;1.60;;
59273;SDS011;45044;41.572;24.730;2022-09-13T14:52:56;6.05;;;1.50;;
59273;SDS011;45044;41.572;24.730;2022-09-13T14:55:31;2.53;;;1.60;;
59273;SDS011;45044;41.572;24.730;2022-09-13T14:58:03;2.25;;;1.50;;
59273;SDS011;45044;41.572;24.730;2022-09-13T15:00:35;2.25;;;1.58;;
59273;SDS011;45044;41.572;24.730;2022-09-13T15:03:14;2.75;;;1.20;;
59273;SDS011;45044;41.572;24.730;2022-09-13T15:05:49;2.53;;;1.52;;
59273;SDS011;45044;41.572;24.730;2022-09-13T15:11:01;4.22;;;1.73;;
59273;SDS011;45044;41.572;24.730;2022-09-13T15:13:30;2.35;;;1.58;;
59273;SDS011;45044;41.572;24.730;2022-09-13T15:15:58;3.80;;;1.50;;
59273;SDS011;45044;41.572;24.730;2022-09-13T15:18:28;2.53;;;1.27;;
59273;SDS011;45044;41.572;24.730;2022-09-13T15:21:05;1.92;;;1.50;;
59273;SDS011;45044;41.572;24.730;2022-09-13T15:23:40;2.63;;;1.30;;
59273;SDS011;45044;41.572;24.730;2022-09-13T15:28:52;2.33;;;1.60;;
59273;SDS011;45044;41.572;24.730;2022-09-13T15:31:23;2.70;;;1.38;;
59273;SDS011;45044;41.572;24.730;2022-09-13T15:36:42;3.15;;;1.77;;
59273;SDS011;45044;41.572;24.730;2022-09-13T15:39:17;2.40;;;1.83;;
59273;SDS011;45044;41.572;24.730;2022-09-13T15:41:55;1.60;;;1.50;;
59273;SDS011;45044;41.572;24.730;2022-09-13T15:44:26;2.78;;;1.75;;
59273;SDS011;45044;41.572;24.730;2022-09-13T15:46:56;2.25;;;1.73;;
59273;SDS011;45044;41.572;24.730;2022-09-13T15:49:30;3.35;;;1.65;;
59273;SDS011;45044;41.572;24.730;2022-09-13T15:51:58;2.90;;;1.90;;
59273;SDS011;45044;41.572;24.730;2022-09-13T15:54:36;2.55;;;1.98;;
59273;SDS011;45044;41.572;24.730;2022-09-13T15:57:15;2.30;;;1.80;;
59273;SDS011;45044;41.572;24.730;2022-09-13T15:59:46;4.07;;;2.35;;
59273;SDS011;45044;41.572;24.730;2022-09-13T16:02:18;6.85;;;4.38;;
59273;SDS011;45044;41.572;24.730;2022-09-13T16:04:49;3.40;;;2.22;;
59273;SDS011;45044;41.572;24.730;2022-09-13T16:07:16;4.43;;;2.28;;
59273;SDS011;45044;41.572;24.730;2022-09-13T16:09:44;3.85;;;2.03;;
59273;SDS011;45044;41.572;24.730;2022-09-13T16:12:13;5.38;;;3.10;;
59273;SDS011;45044;41.572;24.730;2022-09-13T16:14:40;2.85;;;1.60;;
59273;SDS011;45044;41.572;24.730;2022-09-13T16:17:11;2.95;;;1.85;;
59273;SDS011;45044;41.572;24.730;2022-09-13T16:19:41;3.30;;;2.15;;
59273;SDS011;45044;41.572;24.730;2022-09-13T16:22:08;2.53;;;2.00;;
59273;SDS011;45044;41.572;24.730;2022-09-13T16:24:38;3.30;;;2.20;;
59273;SDS011;45044;41.572;24.730;2022-09-13T16:27:05;4.45;;;2.40;;
59273;SDS011;45044;41.572;24.730;2022-09-13T16:29:32;4.65;;;2.10;;
59273;SDS011;45044;41.572;24.730;2022-09-13T16:31:58;3.03;;;1.77;;
59273;SDS011;45044;41.572;24.730;2022-09-13T16:34:26;2.35;;;1.70;;
59273;SDS011;45044;41.572;24.730;2022-09-13T16:36:53;3.20;;;1.98;;
59273;SDS011;45044;41.572;24.730;2022-09-13T16:39:20;2.53;;;2.03;;
59273;SDS011;45044;41.572;24.730;2022-09-13T16:41:47;3.25;;;2.10;;
59273;SDS011;45044;41.572;24.730;2022-09-13T16:44:14;3.80;;;2.08;;
59273;SDS011;45044;41.572;24.730;2022-09-13T16:46:41;8.55;;;3.53;;
59273;SDS011;45044;41.572;24.730;2022-09-13T16:49:08;6.05;;;3.20;;
59273;SDS011;45044;41.572;24.730;2022-09-13T16:51:35;6.32;;;2.72;;
59273;SDS011;45044;41.572;24.730;2022-09-13T16:54:03;4.10;;;2.30;;
59273;SDS011;45044;41.572;24.730;2022-09-13T16:56:31;5.95;;;3.33;;
59273;SDS011;45044;41.572;24.730;2022-09-13T16:58:58;6.20;;;3.90;;
59273;SDS011;45044;41.572;24.730;2022-09-13T17:01:25;6.30;;;3.47;;
59273;SDS011;45044;41.572;24.730;2022-09-13T17:03:53;9.23;;;3.40;;
59273;SDS011;45044;41.572;24.730;2022-09-13T17:06:21;3.78;;;2.38;;
59273;SDS011;45044;41.572;24.730;2022-09-13T17:08:51;4.68;;;2.50;;
59273;SDS011;45044;41.572;24.730;2022-09-13T17:11:29;5.82;;;2.83;;
59273;SDS011;45044;41.572;24.730;2022-09-13T17:13:58;3.67;;;2.28;;
59273;SDS011;45044;41.572;24.730;2022-09-13T17:16:28;5.22;;;2.33;;
59273;SDS011;45044;41.572;24.730;2022-09-13T17:19:00;4.75;;;2.80;;
59273;SDS011;45044;41.572;24.730;2022-09-13T17:21:32;5.18;;;2.97;;
59273;SDS011;45044;41.572;24.730;2022-09-13T17:24:00;5.30;;;3.40;;
59273;SDS011;45044;41.572;24.730;2022-09-13T17:26:27;5.25;;;3.30;;
59273;SDS011;45044;41.572;24.730;2022-09-13T17:28:54;5.90;;;3.80;;
59273;SDS011;45044;41.572;24.730;2022-09-13T17:31:21;7.13;;;3.70;;
59273;SDS011;45044;41.572;24.730;2022-09-13T17:33:48;8.73;;;5.20;;
59273;SDS011;45044;41.572;24.730;2022-09-13T17:36:16;6.13;;;3.83;;
59273;SDS011;45044;41.572;24.730;2022-09-13T17:38:42;8.25;;;4.75;;
59273;SDS011;45044;41.572;24.730;2022-09-13T17:41:10;5.13;;;2.92;;
59273;SDS011;45044;41.572;24.730;2022-09-13T17:43:46;6.15;;;3.13;;
59273;SDS011;45044;41.572;24.730;2022-09-13T17:46:17;5.57;;;3.15;;
59273;SDS011;45044;41.572;24.730;2022-09-13T17:51:17;4.82;;;3.00;;
59273;SDS011;45044;41.572;24.730;2022-09-13T17:53:47;6.25;;;3.30;;
59273;SDS011;45044;41.572;24.730;2022-09-13T17:56:19;6.13;;;3.50;;
59273;SDS011;45044;41.572;24.730;2022-09-13T17:59:13;5.47;;;3.28;;
59273;SDS011;45044;41.572;24.730;2022-09-13T18:01:49;8.65;;;4.28;;
59273;SDS011;45044;41.572;24.730;2022-09-13T18:04:19;10.88;;;6.05;;
59273;SDS011;45044;41.572;24.730;2022-09-13T18:06:49;11.20;;;6.63;;
59273;SDS011;45044;41.572;24.730;2022-09-13T18:09:16;8.77;;;4.65;;
59273;SDS011;45044;41.572;24.730;2022-09-13T18:11:43;8.25;;;4.97;;
59273;SDS011;45044;41.572;24.730;2022-09-13T18:14:11;7.05;;;4.35;;
59273;SDS011;45044;41.572;24.730;2022-09-13T18:16:40;8.35;;;5.57;;
59273;SDS011;45044;41.572;24.730;2022-09-13T18:19:07;6.55;;;4.25;;
59273;SDS011;45044;41.572;24.730;2022-09-13T18:21:34;7.30;;;4.22;;
59273;SDS011;45044;41.572;24.730;2022-09-13T18:24:01;5.93;;;4.05;;
59273;SDS011;45044;41.572;24.730;2022-09-13T18:26:29;9.57;;;4.57;;
59273;SDS011;45044;41.572;24.730;2022-09-13T18:29:02;6.05;;;4.07;;
59273;SDS011;45044;41.572;24.730;2022-09-13T18:31:31;8.60;;;4.43;;
59273;SDS011;45044;41.572;24.730;2022-09-13T18:34:03;7.68;;;4.93;;
59273;SDS011;45044;41.572;24.730;2022-09-13T18:36:33;7.75;;;4.03;;
59273;SDS011;45044;41.572;24.730;2022-09-13T18:39:00;6.80;;;4.00;;
59273;SDS011;45044;41.572;24.730;2022-09-13T18:41:31;7.03;;;4.20;;
59273;SDS011;45044;41.572;24.730;2022-09-13T18:44:00;6.55;;;4.45;;
59273;SDS011;45044;41.572;24.730;2022-09-13T18:46:29;6.30;;;3.88;;
59273;SDS011;45044;41.572;24.730;2022-09-13T18:48:57;6.53;;;3.95;;
59273;SDS011;45044;41.572;24.730;2022-09-13T18:53:56;9.25;;;4.47;;
59273;SDS011;45044;41.572;24.730;2022-09-13T18:56:24;7.95;;;4.05;;